createdAt,value
2022-11-21T00:00:11.623Z,94566.97
2022-11-21T00:03:54.835Z,94549.59
2022-11-21T00:07:37.602Z,94587.88
2022-11-21T00:11:20.305Z,94566.97
2022-11-21T00:15:02.972Z,94580.09
2022-11-21T00:18:47.078Z,94581.69
2022-11-21T00:22:29.793Z,94595.41
2022-11-21T00:26:14.193Z,94596.66
2022-11-21T00:29:56.880Z,94572.28
2022-11-21T00:33:39.658Z,94569.03
2022-11-21T00:37:23.625Z,94572.63
2022-11-21T00:41:06.650Z,94571.91
2022-11-21T00:44:49.279Z,94561.06
2022-11-21T00:48:32.939Z,94544.53
2022-11-21T00:52:15.581Z,94549.38
2022-11-21T00:55:59.692Z,94546.16
2022-11-21T00:59:42.294Z,94550.44
2022-11-21T01:03:24.982Z,94544.63
2022-11-21T01:07:07.672Z,94546.41
2022-11-21T01:10:50.399Z,94537.00
2022-11-21T01:14:34.453Z,94551.69
2022-11-21T01:18:17.070Z,94554.47
2022-11-21T01:21:59.706Z,94548.94
2022-11-21T01:25:42.344Z,94539.78
2022-11-21T01:29:25.333Z,94561.84
2022-11-21T01:33:09.340Z,94551.81
2022-11-21T01:36:51.965Z,94537.06
2022-11-21T01:40:39.083Z,94530.88
2022-11-21T01:44:23.950Z,94522.06
2022-11-21T01:48:07.250Z,94545.06
2022-11-21T01:51:54.751Z,94527.03
2022-11-21T01:55:37.477Z,94530.25
2022-11-21T01:59:24.261Z,94507.44
2022-11-21T02:03:11.590Z,94538.31
2022-11-21T02:06:55.599Z,94512.28
2022-11-21T02:10:39.697Z,94516.75
2022-11-21T02:14:22.354Z,94497.91
2022-11-21T02:18:07.179Z,94471.88
2022-11-21T02:21:56.973Z,94471.63
2022-11-21T02:25:42.880Z,94473.44
2022-11-21T02:29:25.669Z,94474.00
2022-11-21T02:33:08.683Z,94476.47
2022-11-21T02:36:51.357Z,94479.06
2022-11-21T02:40:36.369Z,94477.09
2022-11-21T02:44:23.844Z,94467.31
2022-11-21T02:48:06.871Z,94460.84
2022-11-21T02:51:49.643Z,94467.91
2022-11-21T02:55:32.528Z,94478.88
2022-11-21T02:59:15.192Z,94470.78
2022-11-21T03:02:59.186Z,94469.41
2022-11-21T03:06:41.865Z,94456.19
2022-11-21T03:10:24.596Z,94462.47
2022-11-21T03:14:07.395Z,94466.47
2022-11-21T03:17:50.371Z,94451.06
2022-11-21T03:21:34.551Z,94447.59
2022-11-21T03:25:17.603Z,94438.91
2022-11-21T03:29:00.319Z,94431.34
2022-11-21T03:32:43.041Z,94421.78
2022-11-21T03:36:25.673Z,94441.16
2022-11-21T03:40:11.220Z,94423.47
2022-11-21T03:43:53.996Z,94411.84
2022-11-21T03:47:36.715Z,94424.66
2022-11-21T03:51:19.586Z,94421.00
2022-11-21T03:55:02.378Z,94410.16
2022-11-21T03:58:46.517Z,94411.03
2022-11-21T04:02:29.237Z,94410.16
2022-11-21T04:06:12.857Z,94406.81
2022-11-21T04:09:55.502Z,94430.91
2022-11-21T04:13:38.421Z,94405.06
2022-11-21T04:17:22.424Z,94405.88
2022-11-21T04:21:07.206Z,94409.34
2022-11-21T04:24:49.959Z,94407.16
2022-11-21T04:28:32.636Z,94413.59
2022-11-21T04:32:15.264Z,94405.78
2022-11-21T04:35:59.590Z,94409.78
2022-11-21T04:39:42.263Z,94426.47
2022-11-21T04:43:24.953Z,94415.22
2022-11-21T04:47:10.334Z,94399.50
2022-11-21T04:50:52.977Z,94389.47
2022-11-21T04:54:39.674Z,94407.06
2022-11-21T04:58:22.319Z,94394.22
2022-11-21T05:02:05.012Z,94383.41
2022-11-21T05:05:47.717Z,94380.59
2022-11-21T05:09:30.328Z,94360.16
2022-11-21T05:13:22.141Z,94350.97
2022-11-21T05:17:04.810Z,94355.38
2022-11-21T05:20:47.449Z,94351.06
2022-11-21T05:24:30.316Z,94348.09
2022-11-21T05:28:14.556Z,94342.28
2022-11-21T05:31:57.242Z,94346.00
2022-11-21T05:35:43.350Z,94343.50
2022-11-21T05:39:27.445Z,94342.75
2022-11-21T05:43:29.323Z,94345.34
2022-11-21T05:47:13.319Z,94339.91
2022-11-21T05:50:56.054Z,94348.28
2022-11-21T05:54:42.462Z,94350.50
2022-11-21T05:58:29.880Z,94351.19
2022-11-21T06:02:31.085Z,94383.53
2022-11-21T06:06:15.230Z,94365.44
2022-11-21T06:09:57.906Z,94361.09
2022-11-21T06:13:40.739Z,94373.47
2022-11-21T06:17:24.805Z,94371.56
2022-11-21T06:21:08.993Z,94367.72
2022-11-21T06:24:51.629Z,94373.63
2022-11-21T06:28:41.493Z,94373.00
2022-11-21T06:32:25.469Z,94372.63
2022-11-21T06:36:09.791Z,94380.25
2022-11-21T06:39:52.500Z,94376.53
2022-11-21T06:43:35.250Z,94384.16
2022-11-21T06:47:17.991Z,94388.50
2022-11-21T06:51:06.495Z,94390.59
2022-11-21T06:54:49.322Z,94399.75
2022-11-21T06:58:35.912Z,94401.00
2022-11-21T07:02:18.566Z,94411.03
2022-11-21T07:06:01.798Z,94423.00
2022-11-21T07:09:47.538Z,94401.94
2022-11-21T07:13:30.781Z,94421.69
2022-11-21T07:17:13.499Z,94426.47
2022-11-21T07:20:59.168Z,94446.09
2022-11-21T07:24:41.924Z,94434.97
2022-11-21T07:28:25.984Z,94422.94
2022-11-21T07:32:08.651Z,94433.19
2022-11-21T07:35:51.297Z,94444.53
2022-11-21T07:39:34.002Z,94439.50
2022-11-21T07:43:16.595Z,94436.28
2022-11-21T07:47:00.582Z,94444.72
2022-11-21T07:50:43.232Z,94453.56
2022-11-21T07:54:25.884Z,94439.88
2022-11-21T07:58:13.976Z,94447.44
2022-11-21T08:01:56.738Z,94453.88
2022-11-21T08:05:41.897Z,94456.72
2022-11-21T08:09:29.336Z,94465.94
2022-11-21T08:13:12.869Z,94471.88
2022-11-21T08:16:55.498Z,94464.41
2022-11-21T08:20:38.296Z,94458.59
2022-11-21T08:24:22.375Z,94462.00
2022-11-21T08:28:05.827Z,94464.94
2022-11-21T08:31:48.491Z,94461.22
2022-11-21T08:35:31.483Z,94469.91
2022-11-21T08:39:14.204Z,94455.91
2022-11-21T08:43:02.843Z,94468.16
2022-11-21T08:46:45.506Z,94462.84
2022-11-21T08:50:28.457Z,94455.53
2022-11-21T08:54:11.252Z,94460.59
2022-11-21T08:57:53.934Z,94458.25
2022-11-21T09:01:38.320Z,94459.34
2022-11-21T09:05:21.137Z,94457.06
2022-11-21T09:09:05.863Z,94452.56
2022-11-21T09:12:48.521Z,94457.19
2022-11-21T09:16:48.822Z,94462.34
2022-11-21T09:20:34.246Z,94449.16
2022-11-21T09:24:17.186Z,94455.81
2022-11-21T09:28:00.626Z,94452.69
2022-11-21T09:31:43.545Z,94442.28
2022-11-21T09:35:26.245Z,94434.03
2022-11-21T09:39:10.240Z,94443.50
2022-11-21T09:43:09.199Z,94436.69
2022-11-21T09:46:57.274Z,94434.69
2022-11-21T09:50:42.935Z,94430.31
2022-11-21T09:54:32.590Z,94442.03
2022-11-21T09:58:24.757Z,94435.31
2022-11-21T10:02:14.470Z,94426.88
2022-11-21T10:06:03.139Z,94420.88
2022-11-21T10:10:04.483Z,94416.47
2022-11-21T10:13:57.667Z,94420.50
2022-11-21T10:17:48.164Z,94412.06
2022-11-21T10:21:54.563Z,94406.03
2022-11-21T10:25:40.001Z,94406.03
2022-11-21T10:29:26.955Z,94394.78
2022-11-21T10:33:15.393Z,94379.53
2022-11-21T10:37:01.160Z,94375.91
2022-11-21T10:40:47.300Z,94371.47
2022-11-21T10:44:50.814Z,94377.28
2022-11-21T10:48:33.464Z,94374.88
2022-11-21T10:52:18.789Z,94381.53
2022-11-21T10:56:05.650Z,94369.88
2022-11-21T10:59:57.868Z,94371.50
2022-11-21T11:03:40.598Z,94366.47
2022-11-21T11:07:25.235Z,94355.84
2022-11-21T11:11:14.871Z,94354.66
2022-11-21T11:14:58.091Z,94346.22
2022-11-21T11:18:42.551Z,94331.31
2022-11-21T11:22:28.967Z,94329.72
2022-11-21T11:26:29.916Z,94321.69
2022-11-21T11:30:16.284Z,94316.66
2022-11-21T11:33:58.898Z,94318.47
2022-11-21T11:37:42.830Z,94302.81
2022-11-21T11:42:05.657Z,94300.81
2022-11-21T11:46:22.829Z,94299.59
2022-11-21T11:50:15.504Z,94295.97
2022-11-21T11:54:03.485Z,94297.81
2022-11-21T11:57:48.352Z,94288.34
2022-11-21T12:01:36.365Z,94279.09
2022-11-21T12:05:24.906Z,94279.88
2022-11-21T12:09:14.928Z,94269.72
2022-11-21T12:13:04.197Z,94269.47
2022-11-21T12:16:49.502Z,94269.19
2022-11-21T12:20:36.292Z,94247.69
2022-11-21T12:24:21.029Z,94241.31
2022-11-21T12:28:13.752Z,94232.38
2022-11-21T12:32:08.795Z,94219.78
2022-11-21T12:36:17.516Z,94206.00
2022-11-21T12:40:08.743Z,94202.50
2022-11-21T12:43:57.883Z,94190.47
2022-11-21T12:48:16.150Z,94191.06
2022-11-21T12:52:26.472Z,94185.63
2022-11-21T12:56:13.981Z,94181.22
2022-11-21T13:00:02.896Z,94173.88
2022-11-21T13:03:49.976Z,94169.44
2022-11-21T13:07:33.445Z,94160.88
2022-11-21T13:11:47.651Z,94155.75
2022-11-21T13:15:38.592Z,94152.38
2022-11-21T13:19:24.823Z,94126.94
2022-11-21T13:23:38.115Z,94134.69
2022-11-21T13:27:34.797Z,94132.75
2022-11-21T13:31:31.597Z,94142.16
2022-11-21T13:36:09.036Z,94135.75
2022-11-21T13:39:51.691Z,94137.13
2022-11-21T13:43:35.245Z,94128.22
2022-11-21T13:47:45.219Z,94118.38
2022-11-21T13:51:41.696Z,94117.00
2022-11-21T13:55:45.005Z,94108.44
2022-11-21T13:59:41.737Z,94103.53
2022-11-21T14:03:38.168Z,94097.72
2022-11-21T14:07:26.085Z,94098.06
2022-11-21T14:11:22.352Z,94088.81
2022-11-21T14:15:18.531Z,94082.50
2022-11-21T14:19:03.660Z,94074.53
2022-11-21T14:22:54.161Z,94084.00
2022-11-21T14:26:41.653Z,94073.41
2022-11-21T14:30:32.628Z,94069.41
2022-11-21T14:34:25.240Z,94062.22
2022-11-21T14:38:13.621Z,94054.78
2022-11-21T14:41:58.018Z,94045.78
2022-11-21T14:45:50.058Z,94043.28
2022-11-21T14:49:34.230Z,94038.72
2022-11-21T14:53:16.908Z,94039.72
2022-11-21T14:57:01.276Z,94033.47
2022-11-21T15:01:02.815Z,94020.91
2022-11-21T15:04:48.127Z,94011.06
2022-11-21T15:12:42.841Z,93998.50
2022-11-21T15:16:27.483Z,93990.00
2022-11-21T15:20:20.880Z,93991.63
2022-11-21T15:24:17.184Z,93994.06
2022-11-21T15:28:15.393Z,93972.50
2022-11-21T15:32:07.649Z,93965.00
2022-11-21T15:35:56.116Z,93957.53
2022-11-21T15:39:43.975Z,93949.25
2022-11-21T15:43:43.694Z,93950.59
2022-11-21T15:47:26.521Z,93938.63
2022-11-21T15:51:11.874Z,93931.00
2022-11-21T15:54:54.614Z,93932.59
2022-11-21T15:58:37.433Z,93918.84
2022-11-21T16:02:21.912Z,93929.47
2022-11-21T16:06:04.635Z,93915.69
2022-11-21T16:09:49.739Z,93915.81
2022-11-21T16:13:32.540Z,93901.56
2022-11-21T16:17:15.560Z,93903.91
2022-11-21T16:21:08.546Z,93897.94
2022-11-21T16:24:54.973Z,93894.41
2022-11-21T16:28:39.710Z,93893.28
2022-11-21T16:32:22.385Z,93883.09
2022-11-21T16:36:05.091Z,93878.53
2022-11-21T16:39:51.857Z,93871.75
2022-11-21T16:43:35.935Z,93863.59
2022-11-21T16:47:18.663Z,93863.84
2022-11-21T16:51:10.298Z,93857.84
2022-11-21T16:54:53.121Z,93847.44
2022-11-21T16:58:38.644Z,93840.88
2022-11-21T17:02:21.296Z,93840.28
2022-11-21T17:06:04.019Z,93837.69
2022-11-21T17:09:46.747Z,93829.91
2022-11-21T17:13:29.492Z,93820.91
2022-11-21T17:17:13.631Z,93817.53
2022-11-21T17:20:56.286Z,93809.94
2022-11-21T17:24:38.973Z,93804.16
2022-11-21T17:28:21.703Z,93797.16
2022-11-21T17:32:04.480Z,93793.97
2022-11-21T17:35:48.512Z,93783.75
2022-11-21T17:39:31.573Z,93778.16
2022-11-21T17:43:14.668Z,93771.06
2022-11-21T17:46:59.196Z,93761.63
2022-11-21T17:50:41.856Z,93755.16
2022-11-21T17:54:26.293Z,93753.91
2022-11-21T17:58:12.868Z,93751.75
2022-11-21T18:01:56.111Z,93753.22
2022-11-21T18:05:38.976Z,93746.91
2022-11-21T18:09:21.734Z,93731.88
2022-11-21T18:13:05.780Z,93736.72
2022-11-21T18:16:53.053Z,93735.16
2022-11-21T18:20:36.230Z,93738.78
2022-11-21T18:24:19.063Z,93723.97
2022-11-21T18:28:01.760Z,93709.19
2022-11-21T18:31:48.725Z,93716.59
2022-11-21T18:35:31.425Z,93698.38
2022-11-21T18:39:15.580Z,93705.41
2022-11-21T18:42:58.537Z,93692.00
2022-11-21T18:46:41.158Z,93680.00
2022-11-21T18:50:25.170Z,93675.81
2022-11-21T18:54:10.251Z,93654.00
2022-11-21T18:57:55.382Z,93650.19
2022-11-21T19:01:40.467Z,93639.56
2022-11-21T19:05:26.135Z,93639.75
2022-11-21T19:09:11.594Z,93630.34
2022-11-21T19:12:54.290Z,93625.16
2022-11-21T19:16:37.002Z,93625.56
2022-11-21T19:20:19.684Z,93623.59
2022-11-21T19:24:02.356Z,93613.56
2022-11-21T19:27:46.339Z,93602.34
2022-11-21T19:31:28.998Z,93589.34
2022-11-21T19:35:11.818Z,93577.56
2022-11-21T19:38:54.443Z,93571.94
2022-11-21T19:42:37.094Z,93567.91
2022-11-21T19:46:25.514Z,93542.88
2022-11-21T19:50:09.056Z,93510.25
2022-11-21T19:53:51.695Z,93509.47
2022-11-21T19:57:37.249Z,93521.06
2022-11-21T20:01:22.685Z,93517.66
2022-11-21T20:05:05.857Z,93526.63
2022-11-21T20:08:50.278Z,93528.84
2022-11-21T20:12:32.926Z,93519.47
2022-11-21T20:16:19.952Z,93521.84
2022-11-21T20:20:04.193Z,93523.88
2022-11-21T20:23:47.522Z,93519.91
2022-11-21T20:27:30.221Z,93507.91
2022-11-21T20:31:14.817Z,93507.91
2022-11-21T20:34:57.531Z,93502.28
2022-11-21T20:38:42.431Z,93502.91
2022-11-21T20:42:27.288Z,93503.50
2022-11-21T20:46:13.098Z,93495.50
2022-11-21T20:49:59.786Z,93501.31
2022-11-21T20:53:58.612Z,93497.94
2022-11-21T20:57:44.398Z,93508.13
2022-11-21T21:01:27.799Z,93495.91
2022-11-21T21:05:10.938Z,93482.53
2022-11-21T21:08:54.927Z,93475.38
2022-11-21T21:12:38.422Z,93485.69
2022-11-21T21:16:23.357Z,93469.31
2022-11-21T21:20:07.287Z,93467.13
2022-11-21T21:23:57.396Z,93470.94
2022-11-21T21:27:40.077Z,93469.75
2022-11-21T21:31:23.509Z,93472.56
2022-11-21T21:35:06.732Z,93467.75
2022-11-21T21:38:51.196Z,93467.34
2022-11-21T21:42:35.167Z,93460.72
2022-11-21T21:46:20.158Z,93466.88
2022-11-21T21:50:02.823Z,93463.66
2022-11-21T21:53:46.302Z,93458.06
2022-11-21T21:57:28.914Z,93474.88
2022-11-21T22:01:14.539Z,93475.88
2022-11-21T22:04:57.233Z,93459.31
2022-11-21T22:08:40.713Z,93463.53
2022-11-21T22:12:23.451Z,93447.13
2022-11-21T22:16:07.423Z,93448.09
2022-11-21T22:19:51.462Z,93449.88
2022-11-21T22:23:34.943Z,93452.09
2022-11-21T22:27:17.543Z,93451.53
2022-11-21T22:31:01.148Z,93449.25
2022-11-21T22:34:43.782Z,93446.41
2022-11-21T22:38:27.773Z,93445.81
2022-11-21T22:42:10.547Z,93448.72
2022-11-21T22:45:53.295Z,93455.63
2022-11-21T22:49:35.988Z,93475.69
2022-11-21T22:53:18.628Z,93496.72
2022-11-21T22:57:02.699Z,93508.53
2022-11-21T23:00:48.195Z,93503.94
2022-11-21T23:04:31.222Z,93511.56
2022-11-21T23:08:14.159Z,93483.41
2022-11-21T23:11:56.829Z,93471.44
2022-11-21T23:15:40.848Z,93477.41
2022-11-21T23:19:23.537Z,93464.19
2022-11-21T23:23:06.172Z,93461.34
2022-11-21T23:26:48.849Z,93464.56
2022-11-21T23:30:31.591Z,93445.75
2022-11-21T23:34:18.405Z,93460.13
2022-11-21T23:38:01.086Z,93450.53
2022-11-21T23:41:46.197Z,93455.09
2022-11-21T23:45:29.023Z,93452.88
2022-11-21T23:49:11.906Z,93456.88
2022-11-21T23:52:55.890Z,93457.47
2022-11-21T23:56:38.618Z,93469.66
